Thursday, November 23, 2017, 2:21 AM EST
Back to Local

KDUJ, Du Bois-jefferson County

Location: Reynoldsville, PA, United States Lat: 41.183
Local Time: 2:21 AM EST ( 7:21 GMT) Lon: -78.883
Time Zone: US/Eastern Elev: 1820 ft

Show me the last for .
Show Decoded

2017-11-23 01:53 METAR KDUJ 230653Z AUTO 31006KT 10SM OVC023 M02/M08 A3011 RMK AO2 SLP215
                 T10221078 =
2017-11-23 00:53 METAR KDUJ 230553Z AUTO 28008KT 10SM OVC020 M02/M07 A3011 RMK AO2 SLP216
                 T10221072 11017 21022 58001 =
2017-11-22 23:53 METAR KDUJ 230453Z AUTO 29006KT 10SM OVC020 M02/M07 A3013 RMK AO2 SLP221
                 T10221067 400671022 =
2017-11-22 22:53 METAR KDUJ 230353Z AUTO 29005KT 10SM FEW020 OVC028 M02/M06 A3013 RMK AO2 SLP220
                 T10221061 =
2017-11-22 22:44 METAR KDUJ 230344Z AUTO 28006KT 10SM FEW020 OVC028 M02/M07 A3013 RMK AO2
                 T10221067 =
2017-11-22 21:53 METAR KDUJ 230253Z AUTO 30004KT 10SM OVC030 M02/M07 A3012 RMK AO2 SLP218
                 T10221067 58014 =
2017-11-22 21:43 METAR KDUJ 230243Z AUTO 32005KT 10SM SCT024 OVC031 M02/M07 A3012 RMK AO2
                 T10221067 =
2017-11-22 20:53 METAR KDUJ 230153Z AUTO 29009KT 10SM OVC027 M02/M07 A3014 RMK AO2 SLP226
                 T10221067 =
2017-11-22 20:50 METAR KDUJ 230150Z AUTO 30008KT 10SM OVC029 M02/M07 A3014 RMK AO2 =
2017-11-22 20:25 METAR KDUJ 230125Z AUTO 30007KT 10SM FEW025 OVC030 M02/M07 A3016 RMK AO2
                 T10221067 =
2017-11-22 20:05 METAR KDUJ 230105Z AUTO 29007KT 10SM BKN027 OVC033 M02/M07 A3016 RMK AO2
                 T10221067 =
2017-11-22 19:53 METAR KDUJ 230053Z AUTO 29009KT 10SM FEW024 OVC033 M02/M07 A3016 RMK AO2 SLP232
                 T10171072 =
2017-11-22 19:37 METAR KDUJ 230037Z AUTO 32008G17KT 10SM FEW022 BKN030 OVC035 M02/M07 A3016 RMK
                 AO2 T10171072 =
2017-11-22 18:53 METAR KDUJ 222353Z AUTO 31007KT 10SM OVC024 M02/M07 A3016 RMK AO2 SLP232 60000
                 T10171067 10000 21017 51016 =
2017-11-22 17:53 METAR KDUJ 222253Z AUTO 30006KT 10SM OVC024 M02/M07 A3015 RMK AO2 SLP230
                 T10171072 =
2017-11-22 16:53 METAR KDUJ 222153Z AUTO 31011KT 10SM OVC025 M02/M07 A3014 RMK AO2 SLP226
                 T10171072 =
2017-11-22 15:53 METAR KDUJ 222053Z AUTO 31009G16KT 10SM OVC025 M01/M06 A3011 RMK AO2 SLP211
                 60000 T10111061 51007 =
2017-11-22 14:53 METAR KDUJ 221953Z AUTO 30012G16KT 10SM BKN020 OVC025 M01/M06 A3010 RMK AO2
                 SLP207 T10111056 =
2017-11-22 13:53 METAR KDUJ 221853Z AUTO 31009KT 10SM FEW019 OVC027 M01/M05 A3010 RMK AO2
                 SNB1759E13 SLP206 P0000 T10061050 =
2017-11-22 12:53 METAR KDUJ 221753Z AUTO 32012KT 10SM FEW017 BKN027 OVC035 00/M04 A3009 RMK AO2
                 SLP201 60000 T00001039 10011 20000 53006 =
2017-11-22 12:09 METAR KDUJ 221709Z AUTO 32014G19KT 10SM SCT019 BKN029 OVC036 01/M04 A3008 RMK
                 AO2 T00061039 =
2017-11-22 11:53 METAR KDUJ 221653Z AUTO 30012G17KT 10SM FEW017 FEW022 OVC034 01/M03 A3008 RMK
                 AO2 SLP197 T00061033 =
2017-11-22 11:32 METAR KDUJ 221632Z AUTO 32011KT 10SM FEW016 SCT024 OVC035 01/M03 A3008 RMK AO2
                 T00061033 =
2017-11-22 10:53 METAR KDUJ 221553Z AUTO 34011KT 10SM SCT013 OVC027 01/M02 A3007 RMK AO2 SNB38E47
                 SLP195 P0000 T00061022 =
2017-11-22 10:17 METAR KDUJ 221517Z AUTO 31010KT 10SM OVC010 01/M02 A3007 RMK AO2 T00061017 =
2017-11-22 09:53 METAR KDUJ 221453Z AUTO 32008KT 10SM BKN009 OVC015 00/M02 A3007 RMK AO2 CIG
                 007V011 SLP193 T00001017 51024 =
2017-11-22 09:19 METAR KDUJ 221419Z AUTO 33006KT 7SM BKN009 BKN015 OVC025 01/M02 A3006 RMK AO2
                 CIG 007V012 T00061017 =
2017-11-22 09:12 METAR KDUJ 221412Z AUTO 32007KT 5SM BR FEW009 BKN013 OVC024 00/M02 A3006 RMK AO2
                 T00001017 =
2017-11-22 08:53 METAR KDUJ 221353Z AUTO 31011KT 9SM FEW010 BKN019 OVC024 01/M02 A3005 RMK AO2
                 SLP187 T00061022 =
2017-11-22 07:53 METAR KDUJ 221253Z AUTO 30008KT 10SM BKN010 OVC014 01/M01 A3002 RMK AO2 CIG
                 006V011 SLP179 T00061011 =
2017-11-22 06:53 METAR KDUJ 221153Z AUTO 31009KT 10SM BKN006 OVC010 01/M01 A2999 RMK AO2 SNE01
                 SLP168 P0000 60005 70005 I6000 T00061011 10067 20006 51026 =
2017-11-22 06:30 METAR KDUJ 221130Z AUTO 30007KT 10SM OVC005 01/M01 A2998 RMK AO2 SNE01 P0000
                 T00061011 =
2017-11-22 05:53 METAR KDUJ 221053Z AUTO 30007KT 3SM -SN BR OVC004 01/M01 A2997 RMK AO2 SLP159
                 P0002 T00061006 =
2017-11-22 05:39 METAR KDUJ 221039Z AUTO 30007KT 3SM -SN BR OVC004 01/M01 A2996 RMK AO2 P0002
                 T00061006 =
2017-11-22 04:53 METAR KDUJ 220953Z AUTO 30005KT 1SM -SN BR OVC004 01/M01 A2995 RMK AO2
                 RAB05E14UPB14E26SNB26 SLP151 P0003 I1000 T00061006 =
2017-11-22 04:43 METAR KDUJ 220943Z AUTO 30004KT 1 3/4SM -SN BR OVC006 01/M01 A2994 RMK AO2
                 RAB05E14UPB14E26SNB26 P0002 I1000 T00111006 =
2017-11-22 04:18 METAR KDUJ 220918Z AUTO 30012KT 8SM UP BKN007 OVC016 02/00 A2993 RMK AO2
                 RAB05E14UPB14 CIG 007V010 P0000 T00220000 =
2017-11-22 04:11 METAR KDUJ 220911Z AUTO 30012KT 9SM -RA SCT009 BKN015 OVC020 03/00 A2993 RMK AO2
                 RAB05 P0000 T00280000 =
2017-11-22 04:02 METAR KDUJ 220902Z AUTO 30012G22KT 10SM BKN011 BKN020 OVC034 03/01 A2992 RMK AO2
                 T00330006 =
2017-11-22 03:53 METAR KDUJ 220853Z AUTO 29012G18KT 10SM FEW016 SCT020 OVC036 05/01 A2991 RMK AO2
                 SLP135 T00500006 53010 =
2017-11-22 02:53 METAR KDUJ 220753Z AUTO 26008KT 10SM BKN050 OVC090 06/M02 A2990 RMK AO2 SLP127
                 T00611017 =

Support USWX by starting your Amazon purchase here.